Time;durP1;ratioP1;P1;durP2;ratioP2;P2;SDS_P1;SDS_P2;PMS_P1;PMS_P2;Temp;Humidity;BMP_temperature;BMP_pressure;BME280_temperature;BME280_humidity;BME280_pressure;Samples;Min_cycle;Max_cycle;Signal;HPM_P1;HPM_P2
2024/03/12 00:01:07;;;;;;;110.10;53.95;;;;;;;;;;5021918;28;25141;-66
2024/03/12 00:03:33;;;;;;;125.18;56.30;;;;;;;;;;5017527;28;25109;-65
2024/03/12 00:05:59;;;;;;;131.85;57.88;;;;;;;;;;5018819;28;25146;-66
2024/03/12 00:08:27;;;;;;;112.95;54.97;;;;;;;;;;5016430;28;25157;-65
2024/03/12 00:10:53;;;;;;;115.18;54.47;;;;;;;;;;5012280;28;25163;-65
2024/03/12 00:13:19;;;;;;;123.18;52.15;;;;;;;;;;5011448;28;25001;-66
2024/03/12 00:15:46;;;;;;;127.68;55.13;;;;;;;;;;5015892;28;25118;-66
2024/03/12 00:18:12;;;;;;;113.38;54.55;;;;;;;;;;5013709;28;25142;-66
2024/03/12 00:20:39;;;;;;;118.50;53.00;;;;;;;;;;5015333;28;25064;-66
2024/03/12 00:23:06;;;;;;;115.78;53.38;;;;;;;;;;5018070;28;25088;-66
2024/03/12 00:25:33;;;;;;;111.70;53.80;;;;;;;;;;5034371;28;25053;-65
2024/03/12 00:27:59;;;;;;;113.30;51.05;;;;;;;;;;5014026;28;25070;-67
2024/03/12 00:30:25;;;;;;;113.20;50.40;;;;;;;;;;5010646;28;25075;-67
2024/03/12 00:32:59;;;;;;;109.13;49.53;;;;;;;;;;5017844;28;25054;-65
2024/03/12 00:35:28;;;;;;;115.57;50.78;;;;;;;;;;5020345;28;25072;-66
2024/03/12 00:37:56;;;;;;;103.05;52.15;;;;;;;;;;5009977;28;25097;-66
2024/03/12 00:40:31;;;;;;;117.80;50.22;;;;;;;;;;5011894;28;25079;-67
2024/03/12 00:42:58;;;;;;;129.18;50.78;;;;;;;;;;5012916;28;25163;-65
2024/03/12 00:45:36;;;;;;;109.05;52.72;;;;;;;;;;5018911;28;25130;-65
2024/03/12 00:48:02;;;;;;;117.63;53.47;;;;;;;;;;5013008;28;25115;-66
2024/03/12 00:50:28;;;;;;;117.75;53.35;;;;;;;;;;5012817;28;25102;-67
2024/03/12 00:52:54;;;;;;;106.38;50.70;;;;;;;;;;5017701;28;25160;-65
2024/03/12 00:55:20;;;;;;;117.30;56.63;;;;;;;;;;5023119;28;25062;-68
2024/03/12 00:57:48;;;;;;;133.13;56.97;;;;;;;;;;5024349;28;25064;-68
2024/03/12 01:00:18;;;;;;;135.20;56.95;;;;;;;;;;5025714;28;25072;-68
2024/03/12 01:02:49;;;;;;;122.75;55.53;;;;;;;;;;5024172;28;25067;-67
2024/03/12 01:05:18;;;;;;;124.53;55.22;;;;;;;;;;5026626;28;25093;-66
2024/03/12 01:07:45;;;;;;;131.95;57.13;;;;;;;;;;5020013;28;25074;-67
2024/03/12 01:10:11;;;;;;;121.43;53.47;;;;;;;;;;5023924;28;25073;-67
2024/03/12 01:12:39;;;;;;;116.55;54.00;;;;;;;;;;5026058;28;25110;-67
2024/03/12 01:15:08;;;;;;;141.10;53.35;;;;;;;;;;5023191;28;25057;-66
2024/03/12 01:17:34;;;;;;;121.40;52.83;;;;;;;;;;5021233;28;25089;-66
2024/03/12 01:20:00;;;;;;;125.28;54.92;;;;;;;;;;5026314;28;25064;-67
2024/03/12 01:22:26;;;;;;;121.35;51.53;;;;;;;;;;5012823;28;25169;-65
2024/03/12 01:24:52;;;;;;;128.23;51.53;;;;;;;;;;5020292;28;25163;-68
2024/03/12 01:27:18;;;;;;;120.20;50.97;;;;;;;;;;5020528;28;25093;-66
2024/03/12 01:29:44;;;;;;;112.55;50.40;;;;;;;;;;5023002;28;25067;-67
2024/03/12 01:32:10;;;;;;;104.40;46.33;;;;;;;;;;5023601;28;25054;-67
2024/03/12 01:34:36;;;;;;;104.45;46.83;;;;;;;;;;5017566;28;25101;-68
2024/03/12 01:37:04;;;;;;;103.57;47.80;;;;;;;;;;5019236;28;25082;-68
2024/03/12 01:39:38;;;;;;;99.03;44.33;;;;;;;;;;5016443;28;25145;-67
2024/03/12 01:42:05;;;;;;;92.40;43.88;;;;;;;;;;5013126;28;25116;-67
2024/03/12 01:44:34;;;;;;;89.05;43.58;;;;;;;;;;5014689;28;25137;-67
2024/03/12 01:47:00;;;;;;;90.68;43.95;;;;;;;;;;5018860;28;25044;-69
2024/03/12 01:49:27;;;;;;;98.10;42.70;;;;;;;;;;5010014;28;25075;-67
2024/03/12 01:51:53;;;;;;;86.43;41.70;;;;;;;;;;5007742;28;25109;-66
2024/03/12 01:54:19;;;;;;;90.88;42.42;;;;;;;;;;4996600;28;25081;-64
2024/03/12 01:56:47;;;;;;;86.55;42.72;;;;;;;;;;5000008;28;25066;-67
2024/03/12 01:59:15;;;;;;;82.18;42.00;;;;;;;;;;5000297;28;25070;-66
2024/03/12 02:01:41;;;;;;;90.45;44.03;;;;;;;;;;4999178;28;25172;-65
2024/03/12 02:04:09;;;;;;;90.53;40.85;;;;;;;;;;4999616;28;25113;-67
2024/03/12 02:06:35;;;;;;;86.38;40.72;;;;;;;;;;4994080;28;25097;-66
2024/03/12 02:09:03;;;;;;;84.78;43.88;;;;;;;;;;5000357;28;25084;-67
2024/03/12 02:11:29;;;;;;;99.10;42.83;;;;;;;;;;4995681;28;25048;-68
2024/03/12 02:13:55;;;;;;;92.60;42.05;;;;;;;;;;4994622;28;25062;-67
2024/03/12 02:16:21;;;;;;;89.45;43.00;;;;;;;;;;4992711;28;25132;-66
2024/03/12 02:18:47;;;;;;;98.20;44.35;;;;;;;;;;5000755;28;25083;-67
2024/03/12 02:21:13;;;;;;;86.65;41.28;;;;;;;;;;5001820;28;25105;-67
2024/03/12 02:23:39;;;;;;;96.30;42.22;;;;;;;;;;4990496;28;25070;-68
2024/03/12 02:26:06;;;;;;;95.32;46.13;;;;;;;;;;5004029;28;25060;-66
2024/03/12 02:28:32;;;;;;;103.47;42.67;;;;;;;;;;4994013;28;25075;-68
2024/03/12 02:30:58;;;;;;;93.95;43.90;;;;;;;;;;5001244;28;25062;-66
2024/03/12 02:33:24;;;;;;;88.18;44.42;;;;;;;;;;4995877;28;25064;-66
2024/03/12 02:35:51;;;;;;;101.25;46.65;;;;;;;;;;4993296;28;25093;-65
2024/03/12 02:38:18;;;;;;;98.93;46.40;;;;;;;;;;4989478;28;25066;-68
2024/03/12 02:40:45;;;;;;;92.40;45.88;;;;;;;;;;4997813;28;25049;-68
2024/03/12 02:43:11;;;;;;;98.57;44.28;;;;;;;;;;4991200;28;25080;-67
2024/03/12 02:45:38;;;;;;;92.60;44.63;;;;;;;;;;4995464;28;25059;-67
2024/03/12 02:48:05;;;;;;;105.85;47.33;;;;;;;;;;5022253;28;25074;-67
2024/03/12 02:50:31;;;;;;;99.57;45.78;;;;;;;;;;5016590;28;25134;-65
2024/03/12 02:52:58;;;;;;;93.97;45.78;;;;;;;;;;5023531;28;25111;-68
2024/03/12 02:55:24;;;;;;;93.80;44.35;;;;;;;;;;5025217;28;25064;-67
2024/03/12 02:57:50;;;;;;;100.75;46.97;;;;;;;;;;5027583;28;25069;-67
2024/03/12 03:00:17;;;;;;;100.32;46.22;;;;;;;;;;5032289;28;25092;-67
2024/03/12 03:02:43;;;;;;;99.85;47.90;;;;;;;;;;5026960;28;25050;-66
2024/03/12 03:05:09;;;;;;;114.50;49.25;;;;;;;;;;5025749;28;25077;-67
2024/03/12 03:07:37;;;;;;;100.60;49.88;;;;;;;;;;5026437;28;25127;-66
2024/03/12 03:10:03;;;;;;;114.97;51.58;;;;;;;;;;5029596;28;25058;-66
2024/03/12 03:12:29;;;;;;;99.88;51.58;;;;;;;;;;5028683;28;25064;-66
2024/03/12 03:14:56;;;;;;;112.22;50.22;;;;;;;;;;5028657;28;25074;-67
2024/03/12 03:17:22;;;;;;;87.30;44.42;;;;;;;;;;5025793;28;25131;-65
2024/03/12 03:19:51;;;;;;;88.65;45.17;;;;;;;;;;5027377;28;25068;-67
2024/03/12 03:22:17;;;;;;;105.82;46.05;;;;;;;;;;5021307;28;25073;-66
2024/03/12 03:24:43;;;;;;;89.75;42.72;;;;;;;;;;5029064;28;25082;-66
2024/03/12 03:27:09;;;;;;;87.38;42.90;;;;;;;;;;5027212;28;25125;-69
2024/03/12 03:29:36;;;;;;;76.50;39.53;;;;;;;;;;5026138;28;25148;-67
2024/03/12 03:32:02;;;;;;;86.28;45.08;;;;;;;;;;5024331;28;25100;-66
2024/03/12 03:34:29;;;;;;;87.38;44.30;;;;;;;;;;5020962;28;25135;-66
2024/03/12 03:36:57;;;;;;;86.18;40.58;;;;;;;;;;5023135;28;25073;-67
2024/03/12 03:39:28;;;;;;;72.70;39.20;;;;;;;;;;5022557;28;25134;-67
2024/03/12 03:41:55;;;;;;;70.93;39.15;;;;;;;;;;5022886;28;25099;-66
2024/03/12 03:44:22;;;;;;;84.28;36.97;;;;;;;;;;5024253;28;25076;-66
2024/03/12 03:46:48;;;;;;;83.20;37.35;;;;;;;;;;5029431;28;25060;-66
2024/03/12 03:49:14;;;;;;;79.03;37.85;;;;;;;;;;5028400;28;25083;-66
2024/03/12 03:51:41;;;;;;;89.53;38.60;;;;;;;;;;5025955;28;25063;-69
2024/03/12 03:54:09;;;;;;;83.75;38.17;;;;;;;;;;5026700;28;25116;-66
2024/03/12 03:56:35;;;;;;;79.43;37.83;;;;;;;;;;5004817;28;25152;-66
2024/03/12 03:59:01;;;;;;;73.38;37.45;;;;;;;;;;5014796;28;25071;-68
2024/03/12 04:01:30;;;;;;;81.68;36.13;;;;;;;;;;5015781;28;25062;-66
2024/03/12 04:03:57;;;;;;;77.10;36.58;;;;;;;;;;5011150;28;25102;-67
2024/03/12 04:06:23;;;;;;;87.70;41.05;;;;;;;;;;5007871;28;25058;-66
2024/03/12 04:08:50;;;;;;;74.25;33.97;;;;;;;;;;5004061;28;25062;-67
2024/03/12 04:11:22;;;;;;;76.35;36.42;;;;;;;;;;4994817;28;25068;-68
2024/03/12 04:13:48;;;;;;;93.88;39.00;;;;;;;;;;4999264;28;25113;-66
2024/03/12 04:16:15;;;;;;;87.85;37.95;;;;;;;;;;4994362;28;25101;-66
2024/03/12 04:18:44;;;;;;;90.68;38.05;;;;;;;;;;4998584;28;25067;-66
2024/03/12 04:21:11;;;;;;;77.60;35.72;;;;;;;;;;5005285;28;25075;-66
2024/03/12 04:23:37;;;;;;;81.93;37.30;;;;;;;;;;4997007;28;25148;-66
2024/03/12 04:26:03;;;;;;;77.38;35.45;;;;;;;;;;4996410;28;25075;-67
2024/03/12 04:28:30;;;;;;;92.07;37.65;;;;;;;;;;4999032;28;25072;-67
2024/03/12 04:30:56;;;;;;;72.07;32.67;;;;;;;;;;5000734;28;25078;-64
2024/03/12 04:33:24;;;;;;;92.00;36.47;;;;;;;;;;4998636;28;25082;-67
2024/03/12 04:35:50;;;;;;;74.60;34.30;;;;;;;;;;4996943;28;25084;-66
2024/03/12 04:38:18;;;;;;;76.18;33.92;;;;;;;;;;4998201;28;25088;-66
2024/03/12 04:40:47;;;;;;;72.50;31.75;;;;;;;;;;4997692;28;25123;-67
2024/03/12 04:43:13;;;;;;;80.63;34.05;;;;;;;;;;4987695;28;25052;-66
2024/03/12 04:45:40;;;;;;;75.75;32.75;;;;;;;;;;4998712;28;25133;-66
2024/03/12 04:48:07;;;;;;;74.05;32.50;;;;;;;;;;4998474;28;25079;-64
2024/03/12 04:50:33;;;;;;;64.90;30.27;;;;;;;;;;5000082;28;25052;-68
2024/03/12 04:53:00;;;;;;;70.07;31.38;;;;;;;;;;5000154;28;25056;-67
2024/03/12 04:55:26;;;;;;;64.80;29.90;;;;;;;;;;5000575;28;25139;-66
2024/03/12 04:57:51;;;;;;;72.72;32.45;;;;;;;;;;4999012;28;25188;-68
2024/03/12 05:00:21;;;;;;;62.28;31.38;;;;;;;;;;5000096;28;25066;-67
2024/03/12 05:02:47;;;;;;;66.50;29.27;;;;;;;;;;5001396;28;25097;-67
2024/03/12 05:05:21;;;;;;;70.47;28.98;;;;;;;;;;5000307;28;25048;-65
2024/03/12 05:07:47;;;;;;;73.28;29.83;;;;;;;;;;4999636;28;25096;-69
2024/03/12 05:10:14;;;;;;;61.55;28.27;;;;;;;;;;4992433;28;25167;-67
2024/03/12 05:12:40;;;;;;;62.20;27.02;;;;;;;;;;4994478;28;25095;-67
2024/03/12 05:15:10;;;;;;;60.05;26.48;;;;;;;;;;4993265;28;25158;-66
2024/03/12 05:17:39;;;;;;;65.80;27.00;;;;;;;;;;4999544;28;25054;-67
2024/03/12 05:20:06;;;;;;;60.58;25.60;;;;;;;;;;5004453;28;25055;-65
2024/03/12 05:22:33;;;;;;;59.53;27.00;;;;;;;;;;4992008;28;25065;-67
2024/03/12 05:24:59;;;;;;;58.60;24.98;;;;;;;;;;4996976;28;25057;-67
2024/03/12 05:27:33;;;;;;;57.85;25.73;;;;;;;;;;4997442;28;25082;-66
2024/03/12 05:30:04;;;;;;;51.72;24.92;;;;;;;;;;4994540;28;25112;-64
2024/03/12 05:32:30;;;;;;;60.58;24.55;;;;;;;;;;5000078;28;25070;-67
2024/03/12 05:34:59;;;;;;;59.45;26.10;;;;;;;;;;4994190;28;25047;-67
2024/03/12 05:37:29;;;;;;;48.95;25.33;;;;;;;;;;4994499;28;25074;-67
2024/03/12 05:40:12;;;;;;;49.20;24.08;;;;;;;;;;4997380;28;25134;-67
2024/03/12 05:48:09;;;;;;;51.60;24.42;;;;;;;;;;4996342;28;25059;-67
2024/03/12 05:50:45;;;;;;;47.13;22.65;;;;;;;;;;4989877;28;25145;-66
2024/03/12 05:53:11;;;;;;;52.80;25.95;;;;;;;;;;4992282;28;25121;-66
2024/03/12 05:55:40;;;;;;;50.92;23.83;;;;;;;;;;5003170;28;25123;-65
2024/03/12 05:58:06;;;;;;;63.03;24.90;;;;;;;;;;4998713;28;25133;-66
2024/03/12 06:00:32;;;;;;;56.40;24.63;;;;;;;;;;4998576;28;25168;-67
2024/03/12 06:02:58;;;;;;;53.47;26.65;;;;;;;;;;4996854;28;25073;-69
2024/03/12 06:05:26;;;;;;;51.83;24.08;;;;;;;;;;4999529;28;25127;-67
2024/03/12 06:07:52;;;;;;;54.63;24.55;;;;;;;;;;5017255;28;25094;-67
2024/03/12 06:10:18;;;;;;;53.75;25.38;;;;;;;;;;5021332;28;25146;-66
2024/03/12 06:12:44;;;;;;;53.70;25.92;;;;;;;;;;5018313;28;25050;-65
2024/03/12 06:15:10;;;;;;;55.78;25.83;;;;;;;;;;5019072;28;25081;-68
2024/03/12 06:17:36;;;;;;;57.97;26.38;;;;;;;;;;5020275;28;25061;-66
2024/03/12 06:20:02;;;;;;;60.00;26.13;;;;;;;;;;5017677;28;25079;-68
2024/03/12 06:22:28;;;;;;;48.05;24.25;;;;;;;;;;4997997;28;25087;-65
2024/03/12 06:24:55;;;;;;;55.78;26.75;;;;;;;;;;4997116;28;25066;-66
2024/03/12 06:27:21;;;;;;;65.45;27.42;;;;;;;;;;4998303;28;25133;-67
2024/03/12 06:29:50;;;;;;;60.40;25.58;;;;;;;;;;5000700;28;25067;-66
2024/03/12 06:32:19;;;;;;;59.55;27.92;;;;;;;;;;4992303;28;25064;-68
2024/03/12 06:34:45;;;;;;;50.05;25.58;;;;;;;;;;4993060;28;25058;-66
2024/03/12 06:37:11;;;;;;;47.95;24.58;;;;;;;;;;4994449;28;25071;-68
2024/03/12 06:39:41;;;;;;;50.92;26.70;;;;;;;;;;4996468;28;25162;-66
2024/03/12 06:42:07;;;;;;;61.63;27.35;;;;;;;;;;5005799;28;25066;-66
2024/03/12 06:44:40;;;;;;;65.78;28.95;;;;;;;;;;5016822;28;25064;-67
2024/03/12 06:47:06;;;;;;;;;;;;;;;;;;5019437;28;25064;-67
2024/03/12 06:49:33;;;;;;;55.58;27.38;;;;;;;;;;5011758;28;25076;-66
2024/03/12 06:51:59;;;;;;;49.15;27.60;;;;;;;;;;5015165;28;25065;-66
2024/03/12 06:54:26;;;;;;;49.90;26.40;;;;;;;;;;5013437;28;25111;-65
2024/03/12 06:56:53;;;;;;;48.55;26.75;;;;;;;;;;5023315;28;25055;-68
2024/03/12 06:59:21;;;;;;;48.38;25.35;;;;;;;;;;5013311;28;25076;-67
2024/03/12 07:01:53;;;;;;;54.67;27.15;;;;;;;;;;5018338;28;25073;-68
2024/03/12 07:04:23;;;;;;;59.08;27.25;;;;;;;;;;5009949;28;25069;-68
2024/03/12 07:06:50;;;;;;;48.03;27.23;;;;;;;;;;5010957;28;25099;-69
2024/03/12 07:09:26;;;;;;;63.85;27.88;;;;;;;;;;5015450;28;25050;-67
2024/03/12 07:11:54;;;;;;;53.65;29.52;;;;;;;;;;5017378;28;25112;-66
2024/03/12 07:14:23;;;;;;;59.95;27.55;;;;;;;;;;5014353;28;25096;-66
2024/03/12 07:16:52;;;;;;;53.40;27.05;;;;;;;;;;5007283;28;25051;-67
2024/03/12 07:19:22;;;;;;;52.08;27.33;;;;;;;;;;5015390;28;25098;-66
2024/03/12 07:21:48;;;;;;;45.78;26.20;;;;;;;;;;5020149;28;25066;-66
2024/03/12 07:24:15;;;;;;;51.08;25.50;;;;;;;;;;5020595;28;25086;-66
2024/03/12 07:26:43;;;;;;;49.90;25.95;;;;;;;;;;5022156;28;25052;-65
2024/03/12 07:29:09;;;;;;;47.05;27.15;;;;;;;;;;5011091;28;25074;-65
2024/03/12 07:31:35;;;;;;;42.22;26.48;;;;;;;;;;5023337;28;25102;-65
2024/03/12 07:34:01;;;;;;;40.00;23.75;;;;;;;;;;5013557;28;25085;-66
2024/03/12 07:36:31;;;;;;;49.03;27.30;;;;;;;;;;5007842;28;25093;-66
2024/03/12 07:38:57;;;;;;;44.83;25.00;;;;;;;;;;5019168;28;25085;-66
2024/03/12 07:41:24;;;;;;;42.60;25.33;;;;;;;;;;5017748;28;25057;-67
2024/03/12 07:43:50;;;;;;;45.00;25.42;;;;;;;;;;5014100;28;25146;-65
2024/03/12 07:46:19;;;;;;;55.17;26.55;;;;;;;;;;5015513;28;25145;-66
2024/03/12 07:48:46;;;;;;;42.35;25.17;;;;;;;;;;5021300;28;25065;-67
2024/03/12 07:51:13;;;;;;;45.35;24.25;;;;;;;;;;5018191;28;25104;-65
2024/03/12 07:53:39;;;;;;;43.80;24.30;;;;;;;;;;5019341;28;25131;-66
2024/03/12 07:56:06;;;;;;;41.15;23.95;;;;;;;;;;5019718;28;25077;-66
2024/03/12 07:58:33;;;;;;;45.13;23.67;;;;;;;;;;5012607;28;25046;-65
2024/03/12 08:00:59;;;;;;;42.63;23.85;;;;;;;;;;5014306;28;25071;-66
2024/03/12 08:03:25;;;;;;;46.35;24.10;;;;;;;;;;5021165;28;25065;-66
2024/03/12 08:05:51;;;;;;;39.80;22.90;;;;;;;;;;5011899;28;25085;-65
2024/03/12 08:08:19;;;;;;;48.13;25.52;;;;;;;;;;5018056;28;25058;-66
2024/03/12 08:10:45;;;;;;;47.25;23.05;;;;;;;;;;5020303;28;25086;-66
2024/03/12 08:13:10;;;;;;;40.35;21.50;;;;;;;;;;5013750;28;25074;-65
2024/03/12 08:15:37;;;;;;;41.50;22.33;;;;;;;;;;5016878;28;25125;-65
2024/03/12 08:18:05;;;;;;;38.00;22.23;;;;;;;;;;5022939;28;25062;-62
2024/03/12 08:20:31;;;;;;;42.25;24.50;;;;;;;;;;5015410;28;25065;-64
2024/03/12 08:22:59;;;;;;;44.15;22.52;;;;;;;;;;5011594;28;25058;-65
2024/03/12 08:25:25;;;;;;;38.55;22.88;;;;;;;;;;5023027;28;25067;-63
2024/03/12 08:27:51;;;;;;;48.88;25.35;;;;;;;;;;5042104;28;25063;-64
2024/03/12 08:30:18;;;;;;;43.55;24.10;;;;;;;;;;5040237;28;25134;-64
2024/03/12 08:32:44;;;;;;;41.30;23.40;;;;;;;;;;5034474;28;25065;-63
2024/03/12 08:35:11;;;;;;;47.40;25.40;;;;;;;;;;5029538;28;25167;-62
2024/03/12 08:37:37;;;;;;;42.15;25.88;;;;;;;;;;5017204;28;25104;-64
2024/03/12 08:40:04;;;;;;;49.10;26.40;;;;;;;;;;5019591;28;25049;-64
2024/03/12 08:42:31;;;;;;;43.85;26.52;;;;;;;;;;5023158;28;25110;-64
2024/03/12 08:44:57;;;;;;;40.58;25.35;;;;;;;;;;5020526;28;25075;-66
2024/03/12 08:47:23;;;;;;;47.88;27.33;;;;;;;;;;5008097;28;25062;-64
2024/03/12 08:49:50;;;;;;;50.75;27.15;;;;;;;;;;5022704;28;25070;-63
2024/03/12 08:52:16;;;;;;;46.33;27.23;;;;;;;;;;5012563;28;25051;-66
2024/03/12 08:54:42;;;;;;;43.47;25.58;;;;;;;;;;5017279;28;25065;-64
2024/03/12 08:57:08;;;;;;;44.80;26.00;;;;;;;;;;5012908;28;25074;-63
2024/03/12 08:59:34;;;;;;;49.03;28.88;;;;;;;;;;5013238;28;25140;-64
2024/03/12 09:02:02;;;;;;;47.28;25.88;;;;;;;;;;5019213;28;25084;-63
2024/03/12 09:04:30;;;;;;;50.03;28.77;;;;;;;;;;5008697;28;25076;-65
2024/03/12 09:06:57;;;;;;;54.60;29.25;;;;;;;;;;5021724;28;25166;-64
2024/03/12 09:09:26;;;;;;;49.72;27.73;;;;;;;;;;5016230;28;25144;-64
2024/03/12 09:11:53;;;;;;;45.35;26.33;;;;;;;;;;5016917;28;25079;-64
2024/03/12 09:14:21;;;;;;;45.60;25.95;;;;;;;;;;5017103;28;25071;-64
2024/03/12 09:16:48;;;;;;;49.83;28.48;;;;;;;;;;5014109;28;25055;-65
2024/03/12 09:19:15;;;;;;;44.70;28.38;;;;;;;;;;5015737;28;25095;-64
2024/03/12 09:21:42;;;;;;;44.80;27.13;;;;;;;;;;5022812;28;25099;-61
2024/03/12 09:24:09;;;;;;;47.90;28.00;;;;;;;;;;5016024;28;25057;-64
2024/03/12 09:26:35;;;;;;;52.58;30.40;;;;;;;;;;5012511;28;25057;-64
2024/03/12 09:29:01;;;;;;;49.08;29.83;;;;;;;;;;5009605;28;25102;-63
2024/03/12 09:31:27;;;;;;;46.03;27.92;;;;;;;;;;5014252;28;25294;-64
2024/03/12 09:33:54;;;;;;;47.10;28.08;;;;;;;;;;5009627;28;25078;-63
2024/03/12 09:36:21;;;;;;;48.33;25.98;;;;;;;;;;5014729;28;25068;-67
2024/03/12 09:38:50;;;;;;;42.92;26.95;;;;;;;;;;5010909;28;25054;-65
2024/03/12 09:41:16;;;;;;;44.40;26.73;;;;;;;;;;5012742;28;25061;-65
2024/03/12 09:43:46;;;;;;;44.75;26.85;;;;;;;;;;5010915;28;25071;-64
2024/03/12 09:46:12;;;;;;;44.60;27.25;;;;;;;;;;5016164;28;25115;-63
2024/03/12 09:48:39;;;;;;;45.75;26.17;;;;;;;;;;5019631;28;25137;-64
2024/03/12 09:51:08;;;;;;;48.90;27.00;;;;;;;;;;5018765;28;25068;-63
2024/03/12 09:53:36;;;;;;;45.85;27.48;;;;;;;;;;5009419;28;25089;-66
2024/03/12 09:56:06;;;;;;;43.42;27.73;;;;;;;;;;5017730;28;25072;-63
2024/03/12 09:58:33;;;;;;;45.30;27.73;;;;;;;;;;5015602;28;25048;-63
2024/03/12 10:01:00;;;;;;;42.72;26.70;;;;;;;;;;5017362;28;25082;-64
2024/03/12 10:03:26;;;;;;;42.67;27.42;;;;;;;;;;5014754;28;25042;-63
2024/03/12 10:05:53;;;;;;;47.65;28.88;;;;;;;;;;5015118;28;25064;-64
2024/03/12 10:08:28;;;;;;;50.15;30.25;;;;;;;;;;5014886;28;25049;-64
2024/03/12 10:10:54;;;;;;;51.42;30.95;;;;;;;;;;5019566;28;25072;-62
2024/03/12 10:13:20;;;;;;;51.03;29.98;;;;;;;;;;5019563;28;25081;-63
2024/03/12 10:15:50;;;;;;;51.70;31.80;;;;;;;;;;5013189;28;25057;-65
2024/03/12 10:18:16;;;;;;;53.10;30.92;;;;;;;;;;5018270;28;25075;-64
2024/03/12 10:20:46;;;;;;;54.90;33.35;;;;;;;;;;5024902;28;26181;-62
2024/03/12 10:23:15;;;;;;;56.75;33.38;;;;;;;;;;5011024;28;25106;-61
2024/03/12 10:25:42;;;;;;;54.63;33.03;;;;;;;;;;5014253;28;25076;-64
2024/03/12 10:28:08;;;;;;;56.65;34.67;;;;;;;;;;5012501;28;25136;-63
2024/03/12 10:30:35;;;;;;;57.97;34.28;;;;;;;;;;5018171;28;25154;-62
2024/03/12 10:33:16;;;;;;;53.83;33.50;;;;;;;;;;5009496;28;25078;-62
2024/03/12 10:35:44;;;;;;;52.25;30.95;;;;;;;;;;5008218;28;25101;-63
2024/03/12 10:38:11;;;;;;;58.05;32.28;;;;;;;;;;5014541;28;25068;-62
2024/03/12 10:40:38;;;;;;;59.08;32.85;;;;;;;;;;5013789;28;25136;-61
2024/03/12 10:43:06;;;;;;;48.38;29.15;;;;;;;;;;5016793;28;25064;-63
2024/03/12 10:45:32;;;;;;;45.10;29.00;;;;;;;;;;5029199;28;25080;-62
2024/03/12 10:48:00;;;;;;;49.28;29.33;;;;;;;;;;5031595;28;25061;-61
2024/03/12 10:50:26;;;;;;;43.78;28.00;;;;;;;;;;5033947;28;25087;-65
2024/03/12 10:52:57;;;;;;;52.35;28.50;;;;;;;;;;5037406;28;25074;-64
2024/03/12 10:55:23;;;;;;;54.55;29.38;;;;;;;;;;5016250;28;25093;-62
2024/03/12 10:57:53;;;;;;;52.35;29.65;;;;;;;;;;5015789;28;25104;-62
2024/03/12 11:00:26;;;;;;;56.30;32.05;;;;;;;;;;5010290;28;25099;-62
2024/03/12 11:02:55;;;;;;;55.33;32.63;;;;;;;;;;5012825;28;25067;-66
2024/03/12 11:05:22;;;;;;;58.45;34.70;;;;;;;;;;5011346;28;25098;-63
2024/03/12 11:07:48;;;;;;;59.80;34.40;;;;;;;;;;5017291;28;25052;-66
2024/03/12 11:10:15;;;;;;;53.42;32.30;;;;;;;;;;5009919;28;25051;-63
2024/03/12 11:12:43;;;;;;;53.80;34.13;;;;;;;;;;5011723;28;25112;-64
2024/03/12 11:15:09;;;;;;;50.45;32.47;;;;;;;;;;5019940;28;25075;-67
2024/03/12 11:17:37;;;;;;;53.85;33.85;;;;;;;;;;5014017;28;25102;-64
2024/03/12 11:20:06;;;;;;;51.55;33.92;;;;;;;;;;5018487;28;25144;-64
2024/03/12 11:22:36;;;;;;;58.33;35.97;;;;;;;;;;5016562;28;25159;-64
2024/03/12 11:25:08;;;;;;;58.50;35.22;;;;;;;;;;5017808;28;25067;-65
2024/03/12 11:27:36;;;;;;;56.85;32.63;;;;;;;;;;5020144;28;25169;-65
2024/03/12 11:30:03;;;;;;;53.38;34.75;;;;;;;;;;5017917;28;25110;-65
2024/03/12 11:32:32;;;;;;;59.30;35.20;;;;;;;;;;5030576;28;25050;-66
2024/03/12 11:34:58;;;;;;;59.97;36.95;;;;;;;;;;5019596;28;25070;-65
2024/03/12 11:37:24;;;;;;;61.85;36.13;;;;;;;;;;5015367;28;25059;-65
2024/03/12 11:40:09;;;;;;;67.35;39.47;;;;;;;;;;5018773;28;25096;-66
2024/03/12 11:42:35;;;;;;;55.47;35.92;;;;;;;;;;5014892;28;25084;-65
2024/03/12 11:45:02;;;;;;;56.05;35.88;;;;;;;;;;5006814;28;25175;-67
2024/03/12 11:47:30;;;;;;;52.92;36.90;;;;;;;;;;5016616;28;25075;-66
2024/03/12 11:49:56;;;;;;;56.67;36.80;;;;;;;;;;5019131;28;25071;-64
2024/03/12 11:52:22;;;;;;;60.35;36.75;;;;;;;;;;5013490;28;25141;-65
2024/03/12 11:54:50;;;;;;;53.80;38.70;;;;;;;;;;5022578;28;25087;-67
2024/03/12 11:57:21;;;;;;;54.92;36.50;;;;;;;;;;5018208;28;25099;-65
2024/03/12 11:59:48;;;;;;;58.30;39.25;;;;;;;;;;5016651;28;25068;-68
2024/03/12 12:02:18;;;;;;;62.15;40.10;;;;;;;;;;5013014;28;25136;-65
2024/03/12 12:04:46;;;;;;;61.50;39.83;;;;;;;;;;5035682;28;25069;-66
2024/03/12 12:07:15;;;;;;;57.55;39.88;;;;;;;;;;5019530;28;25079;-65
2024/03/12 12:09:44;;;;;;;70.38;43.50;;;;;;;;;;5016001;28;25141;-65
2024/03/12 12:12:13;;;;;;;63.40;42.70;;;;;;;;;;5015868;28;25084;-66
2024/03/12 12:14:40;;;;;;;68.30;42.25;;;;;;;;;;5015250;28;25053;-66
2024/03/12 12:17:09;;;;;;;65.72;43.17;;;;;;;;;;5023376;28;25071;-65
2024/03/12 12:19:35;;;;;;;71.50;45.42;;;;;;;;;;5014962;28;25057;-64
2024/03/12 12:22:02;;;;;;;74.07;46.75;;;;;;;;;;5023177;28;25069;-67
2024/03/12 12:24:28;;;;;;;74.97;47.80;;;;;;;;;;5014314;28;25133;-64
2024/03/12 12:26:55;;;;;;;74.35;46.67;;;;;;;;;;5018968;28;25155;-64
2024/03/12 12:29:22;;;;;;;75.25;49.05;;;;;;;;;;5014779;28;25071;-65
2024/03/12 12:31:51;;;;;;;81.78;49.75;;;;;;;;;;5016576;28;25122;-65
2024/03/12 12:34:17;;;;;;;79.10;47.38;;;;;;;;;;5017146;28;25151;-66
2024/03/12 12:36:45;;;;;;;77.15;46.10;;;;;;;;;;5015424;28;25072;-66
2024/03/12 12:39:12;;;;;;;70.13;44.80;;;;;;;;;;5014200;28;25138;-68
2024/03/12 12:41:45;;;;;;;69.82;43.28;;;;;;;;;;5015200;28;25065;-66
2024/03/12 12:44:15;;;;;;;72.38;45.70;;;;;;;;;;5010266;28;25069;-65
2024/03/12 12:46:42;;;;;;;69.00;43.60;;;;;;;;;;5017156;28;25054;-63
2024/03/12 12:49:11;;;;;;;74.82;45.17;;;;;;;;;;5014235;28;25073;-67
2024/03/12 12:51:37;;;;;;;70.72;42.63;;;;;;;;;;5014974;28;25054;-65
2024/03/12 12:54:04;;;;;;;70.90;43.83;;;;;;;;;;5014324;28;25059;-64
2024/03/12 12:56:32;;;;;;;76.53;43.97;;;;;;;;;;5013512;28;25084;-66
2024/03/12 12:59:12;;;;;;;72.63;44.50;;;;;;;;;;5016392;28;25066;-66
2024/03/12 13:01:38;;;;;;;71.10;44.15;;;;;;;;;;5014906;28;25080;-65
2024/03/12 13:04:23;;;;;;;76.25;44.65;;;;;;;;;;5030608;28;25070;-63
2024/03/12 13:06:49;;;;;;;70.35;44.17;;;;;;;;;;5044194;28;25147;-65
2024/03/12 13:09:29;;;;;;;79.25;44.92;;;;;;;;;;5036741;28;25090;-65
2024/03/12 13:11:57;;;;;;;74.75;44.20;;;;;;;;;;5030442;28;25081;-67
2024/03/12 13:14:23;;;;;;;72.55;44.67;;;;;;;;;;5017474;28;25074;-65
2024/03/12 13:16:49;;;;;;;72.03;44.08;;;;;;;;;;5019504;28;25060;-67
2024/03/12 13:19:17;;;;;;;64.38;39.72;;;;;;;;;;5013556;28;25060;-66
2024/03/12 13:21:43;;;;;;;73.63;44.88;;;;;;;;;;5017634;28;25109;-66
2024/03/12 13:24:09;;;;;;;69.40;42.53;;;;;;;;;;5006680;28;25106;-67
2024/03/12 13:26:35;;;;;;;70.72;42.00;;;;;;;;;;5013419;28;25143;-67
2024/03/12 13:29:01;;;;;;;62.72;39.33;;;;;;;;;;5008949;28;25064;-67
2024/03/12 13:31:27;;;;;;;62.30;40.22;;;;;;;;;;5017379;28;25081;-67
2024/03/12 13:33:53;;;;;;;63.90;40.80;;;;;;;;;;5013841;28;25118;-64
2024/03/12 13:36:22;;;;;;;62.60;40.92;;;;;;;;;;5023354;28;25162;-66
2024/03/12 13:38:50;;;;;;;64.07;42.38;;;;;;;;;;5019176;28;25049;-64
2024/03/12 13:41:16;;;;;;;64.38;41.05;;;;;;;;;;5017526;28;25060;-65
2024/03/12 13:43:42;;;;;;;66.18;41.75;;;;;;;;;;5013106;28;25091;-66
2024/03/12 13:46:08;;;;;;;61.60;39.75;;;;;;;;;;5021107;28;25093;-67
2024/03/12 13:48:36;;;;;;;68.80;41.70;;;;;;;;;;5018745;28;25070;-66
2024/03/12 13:51:04;;;;;;;63.70;39.83;;;;;;;;;;5016600;28;25101;-67
2024/03/12 13:53:31;;;;;;;61.47;40.72;;;;;;;;;;5012172;28;25047;-65
2024/03/12 13:55:57;;;;;;;71.93;41.88;;;;;;;;;;5023230;28;25068;-65
2024/03/12 13:58:26;;;;;;;67.20;40.83;;;;;;;;;;5014910;28;25067;-66
2024/03/12 14:00:54;;;;;;;68.47;41.72;;;;;;;;;;5024004;28;25075;-64
2024/03/12 14:03:20;;;;;;;66.90;41.70;;;;;;;;;;5020522;28;25084;-65
2024/03/12 14:05:48;;;;;;;65.78;41.13;;;;;;;;;;5020496;28;25060;-65
2024/03/12 14:08:14;;;;;;;65.15;40.28;;;;;;;;;;5020602;28;25094;-65
2024/03/12 14:10:41;;;;;;;66.68;40.53;;;;;;;;;;5023843;28;25099;-65
2024/03/12 14:13:07;;;;;;;65.75;40.15;;;;;;;;;;5022132;28;25068;-67
2024/03/12 14:15:37;;;;;;;60.97;39.08;;;;;;;;;;5022698;28;25146;-66
2024/03/12 14:18:03;;;;;;;58.97;37.45;;;;;;;;;;5022262;28;25068;-65
2024/03/12 14:20:30;;;;;;;62.50;39.10;;;;;;;;;;5019953;28;25085;-67
2024/03/12 14:22:56;;;;;;;65.20;40.92;;;;;;;;;;5022104;28;25083;-65